Sultan Abdul Halim Airport
WMKA : now visible

Airfield :











YOU CAN JOIN US ON...

 
LOGIN :

Register | Disclaimer

   EN    FR    IT 

 









Legend :    VFR   Marginal VFR   IFR   Intensive IFR   Very Intensive IFR
Visi :
Ceiling :
>= 8 km
>= 3000ft
5 to 8 km
1000 to 3000 ft
1500m to 5 km
500 to 1000 ft
800 to 1500m
200 to 500 ft
< 800m
< 200 ft
Symbols :   Thunderstorms  Fog  Heavy snow  Heavy precipitations  Wind > 20 kt






- Airport Elevation : 15 ft
- IATA code : AOR


WMKA - Sultan Abdul Halim

CURRENT METAR :
  • 020200Z VRB03KT 9999 FEW020 27/23 Q1009

EXPIRED METARs :
  • 020100Z 00000KT 9999 FEW020 25/22 Q1008
  • 020000Z 11003KT 060V150 9999 FEW020 24/22 Q1007

TAF TAF WMKA
Valid from the 02 at 00:00 until the 03 at 00:00 UTC


012300Z 0200/0224 VRB03KT 9000 FEW020
TEMPO 0206/0212 5000 TSRA FEW010 FEW017CB
WMFC FIR / Asia



MET'MAP, your aeronautical weather chart ! - Copyright ORBIFLY December 2007 - Disclaimer

ORBIFLY MET'MAP TEAM :

Programming & Development : Alexandra Zaïnal
Original concept : Baudouin d'Aumeries
Technical & hardware support : Manuel Goepfert
Assistance : Marc-Olivier Méhu




SOURCES & CREDITS :

   NOAA       Earth
Advisory